Time;durP1;ratioP1;P1;durP2;ratioP2;P2;SDS_P1;SDS_P2;PMS_P1;PMS_P2;Temp;Humidity;BMP_temperature;BMP_pressure;BME280_temperature;BME280_humidity;BME280_pressure;Samples;Min_cycle;Max_cycle;Signal;HPM_P1;HPM_P2
2022/01/04 00:00:04;;;;;;;5.28;2.83;;;8.50;99.90;;;;;;5084984;28;20029;-78
2022/01/04 00:02:38;;;;;;;6.60;3.42;;;8.50;99.90;;;;;;5085104;28;20267;-79
2022/01/04 00:05:04;;;;;;;6.43;3.78;;;8.50;99.90;;;;;;5084263;28;20029;-79
2022/01/04 00:07:31;;;;;;;6.40;3.28;;;8.40;99.90;;;;;;5093127;28;20051;-79
2022/01/04 00:09:57;;;;;;;7.47;3.50;;;8.40;99.90;;;;;;5107446;28;20392;-78
2022/01/04 00:15:07;;;;;;;8.45;4.22;;;8.40;99.90;;;;;;5107292;28;20036;-78
2022/01/04 00:17:34;;;;;;;5.30;4.10;;;8.40;99.90;;;;;;5107457;28;20024;-79
2022/01/04 00:20:00;;;;;;;9.57;4.53;;;8.40;99.90;;;;;;5072198;28;20083;-78
2022/01/04 00:22:26;;;;;;;6.97;3.65;;;8.40;99.90;;;;;;5106039;28;20032;-79
2022/01/04 00:24:51;;;;;;;7.00;3.72;;;8.40;99.90;;;;;;5088873;28;20084;-78
2022/01/04 00:27:17;;;;;;;6.72;4.50;;;8.40;99.90;;;;;;5106883;28;20373;-78
2022/01/04 00:29:44;;;;;;;8.65;4.55;;;8.40;99.90;;;;;;5087733;22;20049;-79
2022/01/04 00:32:10;;;;;;;7.82;4.63;;;8.40;99.90;;;;;;5069154;28;20450;-79
2022/01/04 00:34:35;;;;;;;10.63;5.88;;;8.50;99.90;;;;;;5069246;28;20037;-79
2022/01/04 00:37:01;;;;;;;10.50;5.90;;;8.60;99.90;;;;;;5087088;28;20029;-79
2022/01/04 00:39:27;;;;;;;8.93;5.45;;;8.50;99.90;;;;;;5052260;28;20060;-79
2022/01/04 00:41:52;;;;;;;10.68;5.70;;;8.50;99.90;;;;;;5069207;28;20028;-79
2022/01/04 00:44:18;;;;;;;9.65;4.43;;;8.40;99.90;;;;;;5068807;28;20048;-80
2022/01/04 00:46:44;;;;;;;6.78;4.15;;;8.40;99.90;;;;;;5086920;28;20092;-79
2022/01/04 00:49:10;;;;;;;6.22;3.63;;;8.40;99.90;;;;;;5068840;28;20033;-79
2022/01/04 00:51:40;;;;;;;5.07;3.83;;;8.30;99.90;;;;;;5068904;28;20032;-79
2022/01/04 00:54:06;;;;;;;7.60;3.88;;;8.30;99.90;;;;;;5068807;28;20464;-78
2022/01/04 00:56:32;;;;;;;6.68;3.05;;;8.30;99.90;;;;;;5069194;28;20059;-78
2022/01/04 00:59:01;;;;;;;6.30;4.20;;;8.20;99.90;;;;;;5068451;28;20552;-79
2022/01/04 01:01:26;;;;;;;5.38;3.25;;;8.20;99.90;;;;;;5068677;28;20036;-78
2022/01/04 01:03:52;;;;;;;6.20;3.15;;;8.20;99.90;;;;;;5051711;28;20070;-78
2022/01/04 01:06:19;;;;;;;6.68;3.15;;;8.20;99.90;;;;;;5068297;28;20096;-78
2022/01/04 01:08:44;;;;;;;5.18;3.00;;;8.20;99.90;;;;;;5086224;28;20035;-79
2022/01/04 01:11:11;;;;;;;5.82;3.55;;;8.20;99.90;;;;;;5068235;28;20044;-79
2022/01/04 01:13:37;;;;;;;6.85;3.75;;;8.20;99.90;;;;;;5086009;28;20028;-79
2022/01/04 01:16:03;;;;;;;6.85;3.50;;;8.20;99.90;;;;;;5050519;28;20028;-79
2022/01/04 01:18:29;;;;;;;4.70;3.35;;;8.20;99.90;;;;;;5068083;28;20052;-79
2022/01/04 01:20:55;;;;;;;6.20;3.13;;;8.20;99.90;;;;;;5067944;28;20029;-78
2022/01/04 01:23:22;;;;;;;7.07;3.00;;;8.20;99.90;;;;;;5051436;28;20468;-78
2022/01/04 01:25:48;;;;;;;4.78;2.28;;;8.20;99.90;;;;;;5051027;28;20029;-78
2022/01/04 01:28:15;;;;;;;4.28;2.20;;;8.20;99.90;;;;;;5067705;28;20020;-79
2022/01/04 01:30:42;;;;;;;5.72;3.70;;;8.20;99.90;;;;;;5050977;28;20049;-79
2022/01/04 01:33:09;;;;;;;5.07;2.85;;;8.20;99.90;;;;;;5067882;28;20032;-79
2022/01/04 01:35:39;;;;;;;7.53;3.75;;;8.20;99.90;;;;;;5085683;28;20035;-78
2022/01/04 01:38:05;;;;;;;5.10;3.03;;;8.20;99.90;;;;;;5086025;28;20059;-79
2022/01/04 01:40:31;;;;;;;4.53;3.08;;;8.20;99.90;;;;;;5085567;28;20029;-78
2022/01/04 01:42:58;;;;;;;4.97;3.50;;;8.20;99.90;;;;;;5067725;28;20034;-79
2022/01/04 01:45:24;;;;;;;6.00;2.45;;;8.20;99.90;;;;;;5067491;28;20021;-79
2022/01/04 01:47:50;;;;;;;4.00;2.70;;;8.20;99.90;;;;;;5067949;28;20059;-79
2022/01/04 01:50:17;;;;;;;7.25;2.85;;;8.20;99.90;;;;;;5067486;28;20089;-80
2022/01/04 01:52:46;;;;;;;6.75;3.03;;;8.20;99.90;;;;;;5067908;28;20028;-78
2022/01/04 01:55:12;;;;;;;5.00;3.17;;;8.20;99.90;;;;;;5050760;28;20063;-79
2022/01/04 01:57:38;;;;;;;4.45;2.25;;;8.20;99.90;;;;;;5051092;28;20035;-79
2022/01/04 02:00:09;;;;;;;4.70;3.05;;;8.20;99.90;;;;;;5085276;28;20024;-79
2022/01/04 02:02:37;;;;;;;4.93;2.90;;;8.20;99.90;;;;;;5085662;28;20044;-79
2022/01/04 02:05:04;;;;;;;6.05;3.55;;;8.20;99.90;;;;;;5050793;28;20036;-79
2022/01/04 02:07:31;;;;;;;6.78;2.95;;;8.20;99.90;;;;;;5068117;28;20036;-79
2022/01/04 02:10:04;;;;;;;8.85;3.90;;;8.20;99.90;;;;;;5051140;28;20029;-79
2022/01/04 02:12:44;;;;;;;6.30;3.88;;;8.20;99.90;;;;;;5068798;28;20059;-79
2022/01/04 02:15:11;;;;;;;5.45;3.38;;;8.20;99.90;;;;;;5050645;28;20040;-79
2022/01/04 02:17:38;;;;;;;6.70;3.30;;;8.20;99.90;;;;;;5050975;28;20044;-79
2022/01/04 02:20:06;;;;;;;4.38;2.85;;;8.20;99.90;;;;;;5067211;28;20123;-78
2022/01/04 02:22:32;;;;;;;8.52;4.07;;;8.20;99.90;;;;;;5067374;28;20071;-78
2022/01/04 02:24:58;;;;;;;6.18;3.95;;;8.20;99.90;;;;;;5085227;28;20028;-79
2022/01/04 02:27:24;;;;;;;8.13;4.50;;;8.20;99.90;;;;;;5051928;28;20033;-79
2022/01/04 02:29:49;;;;;;;7.72;5.03;;;8.20;99.90;;;;;;5070398;28;20048;-79
2022/01/04 02:32:15;;;;;;;5.47;3.75;;;8.20;99.90;;;;;;5054392;28;20040;-79
2022/01/04 02:34:48;;;;;;;8.80;5.45;;;8.20;99.90;;;;;;5054375;28;20025;-79
2022/01/04 02:37:18;;;;;;;8.40;5.30;;;8.20;99.90;;;;;;5054392;28;20035;-79
2022/01/04 02:39:43;;;;;;;15.23;6.95;;;8.20;99.90;;;;;;5071128;28;20028;-79
2022/01/04 02:42:09;;;;;;;7.68;5.60;;;8.20;99.90;;;;;;5070815;28;20033;-78
2022/01/04 02:44:35;;;;;;;8.43;5.63;;;8.20;99.90;;;;;;5054307;28;20464;-78
2022/01/04 02:47:01;;;;;;;12.05;5.97;;;8.20;99.90;;;;;;5070766;28;20033;-78
2022/01/04 02:49:26;;;;;;;9.82;6.57;;;8.10;99.90;;;;;;5088820;28;20024;-79
2022/01/04 02:51:52;;;;;;;10.13;6.00;;;8.20;99.90;;;;;;5088597;28;20036;-79
2022/01/04 02:54:18;;;;;;;9.60;6.10;;;8.10;99.90;;;;;;5054010;28;20021;-79
2022/01/04 02:56:44;;;;;;;11.15;6.57;;;8.10;99.90;;;;;;5088517;28;20085;-78
2022/01/04 02:59:09;;;;;;;7.60;5.30;;;8.20;99.90;;;;;;5053789;28;20070;-78
2022/01/04 03:01:35;;;;;;;9.10;5.78;;;8.20;99.90;;;;;;5070243;28;20043;-78
2022/01/04 03:04:01;;;;;;;7.15;4.30;;;8.10;99.90;;;;;;5088691;28;20029;-78
2022/01/04 03:06:26;;;;;;;7.93;4.38;;;8.10;99.90;;;;;;5088236;28;20048;-79
2022/01/04 03:08:54;;;;;;;7.28;4.57;;;8.10;99.90;;;;;;5070465;28;20024;-79
2022/01/04 03:11:20;;;;;;;6.22;3.83;;;8.10;99.90;;;;;;5088145;28;20032;-79
2022/01/04 03:13:45;;;;;;;7.10;3.88;;;8.00;99.90;;;;;;5088422;28;20079;-78
2022/01/04 03:16:11;;;;;;;6.75;3.75;;;8.00;99.90;;;;;;5053510;28;20039;-79
2022/01/04 03:18:49;;;;;;;5.38;3.67;;;8.00;99.90;;;;;;5053754;28;20028;-78
2022/01/04 03:21:15;;;;;;;6.90;3.45;;;7.90;99.90;;;;;;5070220;28;20032;-78
2022/01/04 03:23:40;;;;;;;8.57;4.68;;;7.90;99.90;;;;;;5070205;28;20385;-78
2022/01/04 03:26:06;;;;;;;6.47;3.63;;;7.90;99.90;;;;;;5053391;28;20080;-78
2022/01/04 03:28:31;;;;;;;6.93;4.47;;;7.90;99.90;;;;;;5053520;28;20032;-79
2022/01/04 03:30:57;;;;;;;8.95;3.92;;;7.90;99.90;;;;;;5066124;28;20555;-78
2022/01/04 03:33:23;;;;;;;6.18;3.55;;;7.90;99.90;;;;;;5066806;28;20553;-79
2022/01/04 03:35:48;;;;;;;7.43;4.45;;;7.80;99.90;;;;;;5067837;28;20485;-78
2022/01/04 03:38:14;;;;;;;9.77;4.35;;;7.80;99.90;;;;;;5066096;28;20033;-78
2022/01/04 03:40:40;;;;;;;7.88;4.70;;;7.80;99.90;;;;;;5067215;28;20029;-79
2022/01/04 03:43:05;;;;;;;7.50;4.07;;;7.80;99.90;;;;;;5049696;28;20043;-79
2022/01/04 03:45:31;;;;;;;10.10;4.20;;;7.90;99.90;;;;;;5049786;28;20035;-79
2022/01/04 03:47:56;;;;;;;8.68;4.25;;;7.90;99.90;;;;;;5049611;28;20036;-78
2022/01/04 03:50:22;;;;;;;6.43;3.42;;;7.90;99.90;;;;;;5066282;28;20064;-79
2022/01/04 03:52:48;;;;;;;7.95;4.43;;;7.90;99.90;;;;;;5049740;28;20344;-78
2022/01/04 03:55:14;;;;;;;10.25;4.95;;;7.90;99.90;;;;;;5049410;28;20097;-79
2022/01/04 03:57:39;;;;;;;8.75;5.18;;;7.90;99.90;;;;;;5049573;28;20035;-79
2022/01/04 04:00:07;;;;;;;8.55;4.90;;;7.90;99.90;;;;;;5049372;28;20033;-79
2022/01/04 04:02:38;;;;;;;6.60;3.90;;;7.90;99.90;;;;;;5067371;28;20029;-79
2022/01/04 04:05:05;;;;;;;8.45;4.60;;;7.80;99.90;;;;;;5067255;28;20025;-79
2022/01/04 04:07:30;;;;;;;8.48;4.45;;;7.80;99.90;;;;;;5049266;28;20057;-79
2022/01/04 04:09:56;;;;;;;9.00;5.97;;;7.80;99.90;;;;;;5067126;28;20025;-78
2022/01/04 04:12:23;;;;;;;10.48;5.55;;;7.80;99.90;;;;;;5067077;28;20037;-78
2022/01/04 04:14:50;;;;;;;12.48;6.68;;;7.80;99.90;;;;;;5067021;28;20029;-79
2022/01/04 04:17:15;;;;;;;13.07;7.57;;;7.90;99.90;;;;;;5065662;28;20053;-79
2022/01/04 04:19:41;;;;;;;10.38;6.47;;;7.80;99.90;;;;;;5067126;28;20051;-79
2022/01/04 04:22:07;;;;;;;12.82;6.75;;;7.80;99.90;;;;;;5067044;28;20021;-79
2022/01/04 04:24:33;;;;;;;10.18;6.40;;;7.80;99.90;;;;;;5065602;28;20044;-79
2022/01/04 04:26:58;;;;;;;11.73;5.72;;;7.80;99.90;;;;;;5065712;28;20033;-79
2022/01/04 04:29:24;;;;;;;8.77;5.35;;;7.80;99.90;;;;;;5048654;28;20041;-79
2022/01/04 04:31:50;;;;;;;9.95;5.75;;;7.80;99.90;;;;;;5065481;28;20055;-79
2022/01/04 04:34:15;;;;;;;10.95;6.20;;;7.80;99.90;;;;;;5065261;28;20055;-79
2022/01/04 04:36:41;;;;;;;9.38;5.53;;;7.80;99.90;;;;;;5065522;28;20040;-79
2022/01/04 04:39:06;;;;;;;10.65;5.65;;;7.80;99.90;;;;;;5065225;28;20017;-78
2022/01/04 04:41:32;;;;;;;9.43;5.60;;;7.80;99.90;;;;;;5048699;28;20381;-79
2022/01/04 04:43:57;;;;;;;7.38;4.10;;;7.70;99.90;;;;;;5065405;28;20037;-79
2022/01/04 04:46:23;;;;;;;6.45;3.63;;;7.70;99.90;;;;;;5065332;28;20033;-79
2022/01/04 04:48:49;;;;;;;6.55;4.38;;;7.80;99.90;;;;;;5065012;28;20392;-79
2022/01/04 04:51:15;;;;;;;8.93;4.57;;;7.80;99.90;;;;;;5048076;28;20045;-78
2022/01/04 04:53:40;;;;;;;10.27;5.43;;;7.80;99.90;;;;;;5066414;28;20025;-79
2022/01/04 04:56:06;;;;;;;5.60;3.92;;;7.80;99.90;;;;;;5066255;28;20056;-78
2022/01/04 04:58:32;;;;;;;8.38;4.90;;;7.80;99.90;;;;;;5064832;28;20027;-79
2022/01/04 05:00:57;;;;;;;9.07;4.75;;;7.80;99.90;;;;;;5066246;28;20033;-79
2022/01/04 05:03:23;;;;;;;9.50;4.18;;;7.80;99.90;;;;;;5064663;28;20040;-79
2022/01/04 05:05:48;;;;;;;10.98;5.22;;;7.80;99.90;;;;;;5048252;28;20044;-79
2022/01/04 05:08:14;;;;;;;9.38;5.35;;;7.80;99.90;;;;;;5066074;28;20025;-79
2022/01/04 05:10:42;;;;;;;8.50;4.78;;;7.80;99.90;;;;;;5048029;28;20064;-79
2022/01/04 05:13:08;;;;;;;10.00;5.60;;;7.80;99.90;;;;;;5065924;28;20033;-79
2022/01/04 05:15:33;;;;;;;8.25;5.70;;;7.80;99.90;;;;;;5066046;28;20531;-79
2022/01/04 05:17:59;;;;;;;13.25;6.65;;;7.80;99.90;;;;;;5066075;28;20029;-79
2022/01/04 05:20:24;;;;;;;11.35;6.30;;;7.80;99.90;;;;;;5064702;28;20037;-79
2022/01/04 05:22:50;;;;;;;11.05;5.65;;;7.80;99.90;;;;;;5048049;28;20059;-78
2022/01/04 05:25:16;;;;;;;9.35;5.18;;;7.80;99.90;;;;;;5064480;28;20267;-79
2022/01/04 05:27:41;;;;;;;10.77;5.85;;;7.80;99.90;;;;;;5064632;28;20095;-78
2022/01/04 05:30:07;;;;;;;8.43;5.43;;;7.80;99.90;;;;;;5049267;28;20056;-79
2022/01/04 05:32:33;;;;;;;8.27;5.13;;;7.80;99.90;;;;;;5044445;28;20040;-79
2022/01/04 05:34:59;;;;;;;9.93;5.60;;;7.80;99.90;;;;;;5027530;28;20037;-79
2022/01/04 05:37:24;;;;;;;10.43;4.95;;;7.80;99.90;;;;;;5027910;28;20097;-79
2022/01/04 05:39:50;;;;;;;12.98;6.90;;;7.70;99.90;;;;;;5040729;28;20064;-79
2022/01/04 05:42:15;;;;;;;11.27;5.50;;;7.70;99.90;;;;;;5047492;28;20056;-79
2022/01/04 05:44:41;;;;;;;11.60;5.40;;;7.70;99.90;;;;;;5047135;28;20033;-80
2022/01/04 05:47:07;;;;;;;12.07;5.47;;;7.70;99.90;;;;;;5047631;28;20032;-79
2022/01/04 05:49:33;;;;;;;8.93;4.63;;;7.70;99.90;;;;;;5063929;28;20064;-79
2022/01/04 05:51:58;;;;;;;11.05;5.43;;;7.70;99.90;;;;;;5064007;28;20067;-79
2022/01/04 05:54:24;;;;;;;9.93;5.93;;;7.80;99.90;;;;;;5064005;28;20021;-80
2022/01/04 05:56:50;;;;;;;11.40;5.53;;;7.80;99.90;;;;;;5046242;28;20053;-79
2022/01/04 05:59:15;;;;;;;12.32;6.80;;;7.70;99.90;;;;;;5043774;28;20029;-79
2022/01/04 06:01:41;;;;;;;10.25;6.47;;;7.70;99.90;;;;;;5045122;28;20045;-80
2022/01/04 06:04:06;;;;;;;7.35;3.78;;;7.70;99.90;;;;;;5050492;28;20029;-79
2022/01/04 06:06:33;;;;;;;10.57;5.82;;;7.80;99.90;;;;;;5051952;28;20037;-79
2022/01/04 06:08:59;;;;;;;10.68;6.35;;;7.80;99.90;;;;;;5050554;28;20033;-79
2022/01/04 06:16:53;;;;;;;9.65;5.60;;;7.80;99.90;;;;;;5050544;28;20053;-79
2022/01/04 06:19:19;;;;;;;9.60;5.93;;;7.80;99.90;;;;;;5050458;28;20401;-79
2022/01/04 06:21:44;;;;;;;11.00;6.85;;;7.80;99.90;;;;;;5050444;28;20033;-79
2022/01/04 06:24:10;;;;;;;8.68;5.88;;;7.80;99.90;;;;;;5051666;28;20033;-79
2022/01/04 06:26:36;;;;;;;8.18;4.88;;;7.80;99.90;;;;;;5050465;28;20041;-79
2022/01/04 06:32:18;;;;;;;11.82;5.18;;;7.80;99.90;;;;;;5029552;28;20067;-79
2022/01/04 06:34:45;;;;;;;10.05;6.18;;;7.80;99.90;;;;;;5014004;28;20049;-79
2022/01/04 06:37:12;;;;;;;10.02;5.55;;;7.70;99.90;;;;;;4998104;28;20041;-79
2022/01/04 06:39:41;;;;;;;10.65;5.75;;;7.70;99.90;;;;;;5024760;28;20036;-80
2022/01/04 06:42:07;;;;;;;13.90;6.75;;;7.70;99.90;;;;;;5006186;28;20048;-79
2022/01/04 06:44:33;;;;;;;10.60;6.38;;;7.70;99.90;;;;;;5008683;28;20034;-79
2022/01/04 06:46:59;;;;;;;14.23;5.78;;;7.70;99.90;;;;;;5029100;28;20037;-78
2022/01/04 06:49:24;;;;;;;12.80;6.68;;;7.70;99.90;;;;;;5013330;28;20049;-79
2022/01/04 06:51:50;;;;;;;7.57;5.32;;;7.70;99.90;;;;;;5015426;28;20041;-79
2022/01/04 06:54:18;;;;;;;8.30;4.88;;;7.70;99.90;;;;;;4998731;28;20061;-80
2022/01/04 06:56:44;;;;;;;8.90;4.97;;;7.70;99.90;;;;;;4996870;28;20045;-79
2022/01/04 06:59:10;;;;;;;9.60;4.55;;;7.70;99.90;;;;;;4993858;28;20165;-79
2022/01/04 07:01:37;;;;;;;9.10;5.60;;;7.70;99.90;;;;;;5012896;28;20033;-79
2022/01/04 07:04:03;;;;;;;9.32;5.20;;;7.70;99.90;;;;;;5013205;28;20038;-79
2022/01/04 07:06:29;;;;;;;12.20;5.97;;;7.70;99.90;;;;;;5001517;28;20030;-79
2022/01/04 07:08:55;;;;;;;11.27;6.18;;;7.70;99.90;;;;;;5020751;28;20044;-78
2022/01/04 07:11:21;;;;;;;11.27;5.88;;;7.70;99.90;;;;;;5013300;28;20046;-80
2022/01/04 07:13:46;;;;;;;8.07;4.78;;;7.70;99.90;;;;;;4987577;28;20034;-80
2022/01/04 07:16:12;;;;;;;10.20;5.55;;;7.70;99.90;;;;;;5006087;28;20425;-79
2022/01/04 07:18:38;;;;;;;10.30;5.25;;;7.70;99.90;;;;;;5009621;28;20034;-80
2022/01/04 07:21:04;;;;;;;14.63;6.85;;;7.70;99.90;;;;;;5007474;28;20065;-80
2022/01/04 07:23:30;;;;;;;11.80;5.35;;;7.70;99.90;;;;;;5027029;28;20084;-80
2022/01/04 07:25:56;;;;;;;12.85;7.40;;;7.70;99.90;;;;;;5008912;28;20048;-81
2022/01/04 07:28:22;;;;;;;12.32;6.47;;;7.70;99.90;;;;;;5026745;28;20065;-80
2022/01/04 07:30:48;;;;;;;14.20;7.10;;;7.70;99.90;;;;;;5008229;28;20064;-79
2022/01/04 07:33:16;;;;;;;12.68;6.28;;;7.70;99.90;;;;;;5025112;28;20044;-77
2022/01/04 07:35:43;;;;;;;11.60;6.53;;;7.70;99.90;;;;;;5026920;28;20045;-77
2022/01/04 07:38:09;;;;;;;12.57;6.57;;;7.70;99.90;;;;;;5028020;28;20026;-77
2022/01/04 07:40:35;;;;;;;9.93;5.20;;;7.70;99.90;;;;;;5011854;28;20050;-77
2022/01/04 07:43:00;;;;;;;10.27;5.35;;;7.70;99.90;;;;;;5009041;28;20091;-77
2022/01/04 07:45:31;;;;;;;14.60;7.65;;;7.70;99.90;;;;;;5008596;28;20041;-77
2022/01/04 07:47:57;;;;;;;14.68;7.50;;;7.70;99.90;;;;;;5008921;28;20041;-78
2022/01/04 07:50:24;;;;;;;11.90;6.65;;;7.70;99.90;;;;;;5025842;28;20030;-78
2022/01/04 07:52:50;;;;;;;9.85;5.60;;;7.70;99.90;;;;;;5026011;28;20029;-79
2022/01/04 07:55:16;;;;;;;15.60;7.53;;;7.70;99.90;;;;;;5026319;28;20052;-78
2022/01/04 07:57:41;;;;;;;12.73;6.72;;;7.70;99.90;;;;;;5026168;28;20389;-77
2022/01/04 08:00:09;;;;;;;14.95;8.10;;;7.70;99.90;;;;;;5022099;28;20064;-79
2022/01/04 08:02:46;;;;;;;14.68;7.43;;;7.70;99.90;;;;;;5026410;28;20030;-79
2022/01/04 08:05:14;;;;;;;16.05;8.48;;;7.60;99.90;;;;;;4995174;28;20056;-78
2022/01/04 08:07:50;;;;;;;15.90;8.35;;;7.60;99.90;;;;;;4992237;28;20034;-84
2022/01/04 08:10:16;;;;;;;17.75;8.82;;;7.60;99.90;;;;;;5022580;28;20026;-82
2022/01/04 08:12:42;;;;;;;16.23;7.95;;;7.60;99.90;;;;;;5024725;28;20060;-77
2022/01/04 08:15:09;;;;;;;18.63;9.13;;;7.60;99.90;;;;;;5025126;28;20125;-79
2022/01/04 08:17:36;;;;;;;17.15;8.45;;;7.60;99.90;;;;;;5025107;28;20034;-78
2022/01/04 08:20:03;;;;;;;16.45;8.63;;;7.60;99.90;;;;;;5007851;28;20041;-81
2022/01/04 08:22:32;;;;;;;11.60;6.93;;;7.60;99.90;;;;;;5025655;28;20040;-78
2022/01/04 08:25:03;;;;;;;13.50;7.72;;;7.60;99.90;;;;;;5006809;28;20125;-80
2022/01/04 08:27:29;;;;;;;18.65;8.73;;;7.60;99.90;;;;;;5024071;28;20033;-86
2022/01/04 08:29:55;;;;;;;16.42;7.07;;;7.60;99.90;;;;;;5075736;22;20040;-81
2022/01/04 08:32:21;;;;;;;15.88;8.52;;;7.60;99.90;;;;;;5086672;28;20093;-80
2022/01/04 08:34:47;;;;;;;14.30;8.43;;;7.60;99.90;;;;;;5082495;28;20024;-77
2022/01/04 08:37:13;;;;;;;13.75;7.68;;;7.60;99.90;;;;;;5076295;28;20035;-82
2022/01/04 08:39:38;;;;;;;14.20;8.82;;;7.60;99.90;;;;;;5085882;28;20023;-82
2022/01/04 08:42:04;;;;;;;14.68;7.63;;;7.60;99.90;;;;;;5083846;28;20040;-76
2022/01/04 08:44:31;;;;;;;15.95;8.23;;;7.70;99.90;;;;;;5104435;28;20102;-77
2022/01/04 08:46:57;;;;;;;19.27;10.07;;;7.70;99.90;;;;;;5065079;28;20514;-76
2022/01/04 08:49:22;;;;;;;19.45;10.40;;;7.70;99.90;;;;;;5068546;28;20043;-77
2022/01/04 08:51:48;;;;;;;21.90;10.88;;;7.70;99.90;;;;;;5080449;28;20039;-76
2022/01/04 08:54:14;;;;;;;23.88;11.85;;;7.70;99.90;;;;;;5099471;28;20039;-79
2022/01/04 08:56:40;;;;;;;21.38;11.45;;;7.70;99.90;;;;;;5080111;28;20119;-86
2022/01/04 08:59:08;;;;;;;21.15;10.40;;;7.70;99.90;;;;;;5101651;28;20346;-81
2022/01/04 09:01:33;;;;;;;22.13;10.20;;;7.80;99.90;;;;;;5096626;28;20029;-78
2022/01/04 09:03:59;;;;;;;18.85;9.45;;;7.80;99.90;;;;;;5079538;28;20032;-88
2022/01/04 09:06:25;;;;;;;25.08;11.65;;;7.80;99.90;;;;;;5096773;28;20032;-84
2022/01/04 09:08:54;;;;;;;17.92;9.82;;;7.90;99.90;;;;;;5103423;28;20047;-77
2022/01/04 09:11:21;;;;;;;19.70;11.15;;;7.80;99.90;;;;;;5094520;28;20068;-78
2022/01/04 09:13:54;;;;;;;17.67;10.13;;;7.90;99.90;;;;;;5084384;28;20488;-77
2022/01/04 09:19:04;;;;;;;23.65;11.75;;;7.90;99.90;;;;;;5097224;28;20098;-81
2022/01/04 09:21:30;;;;;;;23.70;13.90;;;7.90;99.90;;;;;;5077436;28;20028;-78
2022/01/04 09:23:58;;;;;;;23.90;12.27;;;7.90;99.90;;;;;;5095251;28;20036;-82
2022/01/04 09:26:26;;;;;;;21.40;10.93;;;7.90;99.90;;;;;;5099296;28;20039;-84
2022/01/04 09:28:53;;;;;;;23.80;13.80;;;8.00;99.90;;;;;;5097153;22;20044;-78
2022/01/04 09:31:24;;;;;;;24.65;12.20;;;8.00;99.90;;;;;;5031513;28;20087;-77
2022/01/04 09:33:51;;;;;;;19.95;11.15;;;8.00;99.90;;;;;;5044246;28;20021;-77
2022/01/04 09:36:17;;;;;;;19.40;10.70;;;8.10;99.90;;;;;;5032600;28;20091;-77
2022/01/04 09:38:43;;;;;;;25.70;12.48;;;8.00;99.90;;;;;;5037798;28;20416;-84
2022/01/04 09:41:12;;;;;;;22.70;12.77;;;8.10;99.90;;;;;;5007822;28;20052;-78
2022/01/04 09:43:38;;;;;;;30.60;14.35;;;8.00;99.90;;;;;;5051466;28;20018;-77
2022/01/04 09:46:04;;;;;;;31.38;14.43;;;8.00;99.90;;;;;;5038563;28;20098;-77
2022/01/04 09:48:29;;;;;;;23.35;11.93;;;8.00;99.90;;;;;;5058385;28;20040;-78
2022/01/04 09:50:59;;;;;;;23.55;12.82;;;8.00;99.90;;;;;;5034261;28;20037;-78
2022/01/04 09:53:25;;;;;;;26.35;14.07;;;7.90;99.90;;;;;;5057252;28;20028;-76
2022/01/04 09:55:53;;;;;;;24.15;12.07;;;7.80;99.90;;;;;;5057077;28;20113;-76
2022/01/04 09:58:20;;;;;;;21.35;9.55;;;7.80;99.90;;;;;;5025338;28;20130;-76
2022/01/04 10:00:47;;;;;;;18.27;8.98;;;7.80;99.90;;;;;;5034511;28;20029;-77
2022/01/04 10:03:17;;;;;;;19.30;9.52;;;7.80;99.90;;;;;;5042520;28;20036;-77
2022/01/04 10:05:43;;;;;;;20.27;11.07;;;7.80;99.90;;;;;;5062138;28;20448;-87
2022/01/04 10:08:10;;;;;;;20.25;10.93;;;7.80;99.90;;;;;;5044928;28;20194;-83
2022/01/04 10:10:36;;;;;;;16.85;8.80;;;7.80;99.90;;;;;;5022383;28;20408;-81
2022/01/04 10:13:06;;;;;;;16.05;9.13;;;7.70;99.90;;;;;;4960911;28;20183;-77
2022/01/04 10:15:47;;;;;;;16.40;8.80;;;7.60;99.90;;;;;;5049362;28;20089;-82
2022/01/04 10:18:12;;;;;;;17.83;8.82;;;7.60;99.90;;;;;;5051815;28;20294;-76
2022/01/04 10:20:43;;;;;;;13.43;6.78;;;7.60;99.90;;;;;;5038334;28;20036;-77
2022/01/04 10:23:15;;;;;;;9.52;4.15;;;7.60;99.90;;;;;;5023423;28;20025;-78
2022/01/04 10:25:41;;;;;;;6.85;2.15;;;7.60;99.90;;;;;;5056923;28;20021;-78
2022/01/04 10:28:34;;;;;;;3.50;1.70;;;7.40;99.90;;;;;;5050337;28;20036;-77
2022/01/04 10:31:03;;;;;;;4.07;0.90;;;7.40;99.90;;;;;;5045140;28;20405;-78
2022/01/04 10:33:31;;;;;;;2.78;0.60;;;7.40;99.90;;;;;;5042803;28;20033;-77
2022/01/04 10:35:58;;;;;;;1.92;0.70;;;7.40;99.90;;;;;;5044125;28;20056;-77
2022/01/04 10:38:36;;;;;;;2.67;0.63;;;7.40;99.90;;;;;;5059901;28;20459;-77
2022/01/04 10:41:08;;;;;;;1.95;0.60;;;7.40;99.90;;;;;;5039637;28;20052;-78
2022/01/04 10:43:55;;;;;;;2.92;0.98;;;7.40;99.90;;;;;;5052761;28;20148;-77
2022/01/04 10:46:36;;;;;;;3.85;1.35;;;7.30;99.90;;;;;;5058251;28;20036;-77
2022/01/04 10:49:18;;;;;;;3.45;1.10;;;7.40;99.90;;;;;;5061392;28;20070;-77
2022/01/04 10:51:45;;;;;;;2.88;0.95;;;7.40;99.90;;;;;;5056311;28;20047;-77
2022/01/04 10:54:18;;;;;;;3.58;1.25;;;7.50;99.90;;;;;;5059483;28;20040;-78
2022/01/04 10:56:43;;;;;;;4.18;1.92;;;7.70;99.90;;;;;;5061272;28;20151;-77
2022/01/04 10:59:11;;;;;;;5.35;2.38;;;7.70;99.90;;;;;;5060786;28;20051;-77
2022/01/04 11:01:44;;;;;;;8.68;3.50;;;7.80;99.90;;;;;;5053496;28;20125;-76
2022/01/04 11:04:15;;;;;;;9.40;4.85;;;7.90;99.90;;;;;;5064603;28;20100;-77
2022/01/04 11:06:41;;;;;;;10.50;5.78;;;7.80;99.90;;;;;;5062158;28;20039;-77
2022/01/04 11:09:09;;;;;;;12.82;6.47;;;7.80;99.90;;;;;;5054256;28;20034;-77
2022/01/04 11:11:35;;;;;;;11.07;5.82;;;7.80;99.90;;;;;;5060730;28;20042;-77
2022/01/04 11:14:02;;;;;;;12.07;7.00;;;7.80;99.90;;;;;;5058408;28;20045;-77
2022/01/04 11:16:29;;;;;;;16.85;7.35;;;7.80;99.90;;;;;;5054072;28;20029;-76
2022/01/04 11:18:57;;;;;;;14.20;7.55;;;7.90;99.90;;;;;;5062777;28;20098;-77
2022/01/04 11:21:26;;;;;;;19.33;9.90;;;7.90;99.90;;;;;;5038990;28;20136;-77
2022/01/04 11:23:54;;;;;;;18.27;7.72;;;7.90;99.90;;;;;;5039025;28;20047;-79
2022/01/04 11:26:20;;;;;;;23.90;12.48;;;8.00;99.90;;;;;;5003255;28;20053;-77
2022/01/04 11:28:48;;;;;;;17.95;10.32;;;8.00;99.90;;;;;;5058153;28;20438;-77
2022/01/04 11:31:26;;;;;;;18.17;10.05;;;8.10;99.90;;;;;;5050520;28;20041;-80
2022/01/04 11:33:55;;;;;;;21.98;11.55;;;8.10;99.90;;;;;;5056276;28;20105;-77
2022/01/04 11:36:21;;;;;;;19.80;11.45;;;8.20;99.90;;;;;;5061759;28;20028;-78
2022/01/04 11:38:47;;;;;;;23.20;12.77;;;8.30;99.90;;;;;;5065121;28;20025;-77
2022/01/04 11:41:33;;;;;;;22.95;14.10;;;8.20;99.90;;;;;;5027066;28;20045;-78
2022/01/04 11:44:23;;;;;;;20.13;12.52;;;8.30;99.90;;;;;;5018192;28;20133;-79
2022/01/04 11:47:01;;;;;;;20.00;11.20;;;8.30;99.90;;;;;;5015750;28;20056;-80
2022/01/04 11:49:26;;;;;;;22.90;12.65;;;8.30;99.90;;;;;;5027329;28;20029;-78
2022/01/04 11:51:52;;;;;;;23.35;12.88;;;8.20;99.90;;;;;;5029535;28;20033;-81
2022/01/04 11:54:20;;;;;;;22.52;12.77;;;8.20;99.90;;;;;;5046330;28;20474;-82
2022/01/04 11:56:48;;;;;;;22.25;12.43;;;8.20;99.90;;;;;;5041464;28;20076;-78
2022/01/04 11:59:45;;;;;;;20.55;11.82;;;8.20;99.90;;;;;;5048373;28;20097;-76
2022/01/04 12:02:28;;;;;;;25.40;13.38;;;8.20;99.90;;;;;;5029359;28;20073;-77
2022/01/04 12:04:55;;;;;;;21.17;11.35;;;8.00;99.90;;;;;;5027046;28;20452;-77
2022/01/04 12:07:38;;;;;;;15.65;9.20;;;7.90;99.90;;;;;;5046836;28;20030;-77
2022/01/04 12:10:22;;;;;;;14.07;8.65;;;7.80;99.90;;;;;;5040819;28;20053;-76
2022/01/04 12:13:06;;;;;;;13.57;7.65;;;7.80;99.90;;;;;;5025548;28;20100;-78
2022/01/04 12:15:35;;;;;;;12.68;6.43;;;7.80;99.90;;;;;;5056208;28;20056;-77
2022/01/04 12:18:05;;;;;;;12.90;5.88;;;7.70;99.90;;;;;;5058882;28;20029;-87
2022/01/04 12:20:42;;;;;;;11.43;5.22;;;7.70;99.90;;;;;;5060961;28;20040;-83
2022/01/04 12:23:24;;;;;;;10.27;4.82;;;7.70;99.90;;;;;;5019312;28;20029;-76
2022/01/04 12:26:02;;;;;;;10.77;5.50;;;7.60;99.90;;;;;;5058858;28;20036;-82
2022/01/04 12:28:29;;;;;;;11.52;4.43;;;7.70;99.90;;;;;;5048322;28;20036;-82
2022/01/04 12:31:13;;;;;;;9.18;3.95;;;7.60;99.90;;;;;;5045357;28;20049;-78
2022/01/04 12:33:41;;;;;;;7.72;3.78;;;7.50;99.90;;;;;;5052613;28;20032;-78
2022/01/04 12:36:06;;;;;;;9.73;3.70;;;7.60;99.90;;;;;;5056248;28;20452;-76
2022/01/04 12:38:33;;;;;;;9.57;4.47;;;7.70;99.90;;;;;;5058532;28;20085;-80
2022/01/04 12:41:01;;;;;;;11.75;4.28;;;7.60;99.90;;;;;;5037816;28;20067;-86
2022/01/04 12:43:27;;;;;;;9.18;4.45;;;7.70;99.90;;;;;;5051865;28;20033;-78
2022/01/04 12:46:01;;;;;;;9.20;4.22;;;7.70;99.90;;;;;;5059120;28;20116;-76
2022/01/04 12:48:51;;;;;;;10.70;5.00;;;7.70;99.90;;;;;;5056126;28;20089;-83
2022/01/04 12:51:38;;;;;;;9.73;4.20;;;7.70;99.90;;;;;;5059223;28;20060;-81
2022/01/04 12:54:07;;;;;;;8.60;3.45;;;7.60;99.90;;;;;;5057042;28;20033;-86
2022/01/04 12:56:40;;;;;;;7.43;2.97;;;7.50;99.90;;;;;;5043069;28;20051;-81
2022/01/04 12:59:06;;;;;;;7.22;2.35;;;7.40;99.90;;;;;;5058213;28;20044;-81
2022/01/04 13:01:33;;;;;;;5.80;1.60;;;7.30;99.90;;;;;;5059919;28;20029;-76
2022/01/04 13:03:59;;;;;;;5.45;1.40;;;7.30;99.90;;;;;;5059872;28;20017;-76
2022/01/04 13:06:27;;;;;;;7.47;1.63;;;7.20;99.90;;;;;;5045175;28;20096;-76